createdAt,value
2022-11-23T00:06:26.308Z,31.70
2022-11-23T00:16:30.651Z,31.50
2022-11-23T00:26:33.725Z,27.80
2022-11-23T00:36:36.784Z,29.30
2022-11-23T00:46:39.866Z,31.30
2022-11-23T00:56:43.022Z,31.00
2022-11-23T01:06:46.189Z,28.40
2022-11-23T01:16:52.341Z,28.90
2022-11-23T01:26:56.133Z,27.20
2022-11-23T01:36:59.463Z,27.30
2022-11-23T01:47:06.881Z,24.70
2022-11-23T01:57:17.895Z,27.00
2022-11-23T02:07:24.258Z,25.30
2022-11-23T02:17:27.425Z,24.50
2022-11-23T02:27:30.753Z,24.60
2022-11-23T02:37:33.994Z,26.40
2022-11-23T02:47:37.071Z,23.80
2022-11-23T02:57:40.136Z,24.00
2022-11-23T03:07:46.226Z,23.20
2022-11-23T03:17:49.740Z,24.80
2022-11-23T03:27:53.126Z,23.60
2022-11-23T03:37:57.157Z,23.10
2022-11-23T03:48:01.050Z,21.00
2022-11-23T03:58:04.726Z,22.80
2022-11-23T04:08:10.720Z,20.10
2022-11-23T04:18:13.976Z,20.40
2022-11-23T04:28:17.506Z,18.70
2022-11-23T04:38:22.617Z,21.40
2022-11-23T04:48:26.001Z,20.70
2022-11-23T04:58:33.158Z,18.90
2022-11-23T05:08:38.350Z,16.40
2022-11-23T05:19:00.125Z,18.40
2022-11-23T05:29:03.800Z,18.70
2022-11-23T05:39:07.770Z,18.10
2022-11-23T05:49:12.551Z,17.80
2022-11-23T05:59:16.645Z,18.60
2022-11-23T06:09:23.735Z,16.60
2022-11-23T06:19:30.940Z,17.70
2022-11-23T06:29:35.020Z,17.50
2022-11-23T06:39:38.785Z,17.90
2022-11-23T06:49:42.513Z,16.10
2022-11-23T06:59:59.365Z,16.00
2022-11-23T07:10:08.643Z,15.30
2022-11-23T07:20:34.680Z,16.20
2022-11-23T07:30:38.117Z,17.10
2022-11-23T07:40:41.529Z,16.10
2022-11-23T07:50:54.825Z,14.80
2022-11-23T08:00:57.978Z,14.10
2022-11-23T08:11:01.057Z,15.90
2022-11-23T08:21:04.574Z,14.00
2022-11-23T08:31:11.960Z,14.80
2022-11-23T08:41:15.508Z,15.50
2022-11-23T08:51:22.868Z,15.30
2022-11-23T09:01:26.270Z,16.30
2022-11-23T09:11:29.417Z,14.60
2022-11-23T09:21:34.496Z,19.40
2022-11-23T09:31:37.864Z,15.30
2022-11-23T09:41:49.755Z,14.10
2022-11-23T09:51:57.080Z,11.90
2022-11-23T10:02:01.349Z,15.10
2022-11-23T10:12:39.841Z,15.40
2022-11-23T10:22:59.565Z,14.00
2022-11-23T10:33:24.849Z,14.40
2022-11-23T10:44:00.195Z,13.60
2022-11-23T10:54:07.532Z,14.90
2022-11-23T11:04:23.033Z,13.40
2022-11-23T11:14:26.464Z,14.40
2022-11-23T11:24:47.410Z,15.30
2022-11-23T11:35:00.975Z,15.30
2022-11-23T11:45:08.095Z,16.60
2022-11-23T11:55:21.548Z,16.50
2022-11-23T12:05:49.761Z,17.70
2022-11-23T12:16:22.148Z,14.30
2022-11-23T12:26:46.681Z,17.90
2022-11-23T12:37:18.703Z,21.30
2022-11-23T12:47:43.189Z,18.10
2022-11-23T12:58:05.895Z,20.30
2022-11-23T13:08:35.689Z,21.40
2022-11-23T13:18:45.937Z,22.60
2022-11-23T13:28:53.564Z,23.60
2022-11-23T13:38:58.267Z,22.30
2022-11-23T13:49:01.812Z,22.90
2022-11-23T13:59:23.447Z,25.30
2022-11-23T14:09:43.209Z,25.40
2022-11-23T14:20:09.176Z,25.50
2022-11-23T14:30:21.439Z,24.60
2022-11-23T14:40:29.425Z,27.40
2022-11-23T14:50:34.091Z,26.10
2022-11-23T15:20:48.770Z,29.40
2022-11-23T15:30:57.970Z,26.00
2022-11-23T15:41:05.391Z,23.80
2022-11-23T15:51:21.532Z,24.10
2022-11-23T16:01:25.348Z,26.50
2022-11-23T16:11:35.506Z,31.30
2022-11-23T16:21:45.238Z,27.70
2022-11-23T16:31:55.203Z,27.90
2022-11-23T16:41:58.338Z,29.00
2022-11-23T16:52:01.434Z,35.50
2022-11-23T17:02:04.604Z,31.50
2022-11-23T17:12:14.820Z,28.80
2022-11-23T17:22:20.396Z,28.00
2022-11-23T17:32:23.621Z,33.60
2022-11-23T17:42:26.895Z,28.50
2022-11-23T17:52:30.011Z,27.00
2022-11-23T18:02:33.132Z,28.10
2022-11-23T18:12:37.346Z,28.90
2022-11-23T18:22:40.580Z,31.20
2022-11-23T18:32:43.741Z,27.90
2022-11-23T18:42:46.939Z,27.10
2022-11-23T18:52:50.197Z,31.20
2022-11-23T19:03:02.669Z,29.40
2022-11-23T19:13:06.294Z,26.70
2022-11-23T19:23:09.444Z,28.80
2022-11-23T19:33:12.584Z,30.90
2022-11-23T19:43:15.679Z,34.20
2022-11-23T19:53:18.840Z,33.60
2022-11-23T20:03:21.980Z,28.30
2022-11-23T20:13:26.390Z,35.20
2022-11-23T20:23:30.165Z,29.20
2022-11-23T20:33:34.059Z,28.30
2022-11-23T20:43:37.141Z,26.80
2022-11-23T20:53:41.822Z,32.30
2022-11-23T21:14:40.934Z,29.90
2022-11-23T21:24:44.202Z,29.60
2022-11-23T21:34:47.345Z,32.70
2022-11-23T21:44:50.401Z,29.10
2022-11-23T21:54:53.568Z,27.80
2022-11-23T22:04:56.923Z,28.40
2022-11-23T22:15:00.261Z,31.70
2022-11-23T22:25:03.811Z,29.30
2022-11-23T22:35:07.506Z,28.50
2022-11-23T22:45:11.357Z,26.50
2022-11-23T22:55:14.748Z,25.50
2022-11-23T23:05:19.574Z,27.60
2022-11-23T23:15:24.394Z,27.00
2022-11-23T23:25:27.729Z,23.30
2022-11-23T23:35:30.977Z,21.60
2022-11-23T23:45:34.422Z,25.80
2022-11-23T23:55:37.777Z,23.10
